createdAt,value
2023-05-17T00:02:01.419Z,100725.38
2023-05-17T00:04:27.728Z,100713.16
2023-05-17T00:06:54.044Z,100711.34
2023-05-17T00:09:20.378Z,100707.47
2023-05-17T00:11:46.628Z,100702.16
2023-05-17T00:22:58.089Z,100702.59
2023-05-17T00:25:24.344Z,100698.41
2023-05-17T00:27:50.629Z,100698.63
2023-05-17T00:30:16.977Z,100703.84
2023-05-17T00:32:43.292Z,100703.31
2023-05-17T00:35:09.627Z,100708.25
2023-05-17T00:37:35.948Z,100705.88
2023-05-17T00:40:02.612Z,100707.91
2023-05-17T00:42:28.862Z,100703.84
2023-05-17T00:44:55.128Z,100706.22
2023-05-17T00:47:21.409Z,100703.63
2023-05-17T00:49:47.680Z,100706.00
2023-05-17T00:52:13.950Z,100715.84
2023-05-17T00:54:40.257Z,100718.13
2023-05-17T00:57:06.563Z,100712.19
2023-05-17T00:59:32.847Z,100701.69
2023-05-17T01:01:59.086Z,100700.34
2023-05-17T01:04:25.351Z,100685.63
2023-05-17T01:06:51.659Z,100685.50
2023-05-17T01:09:17.923Z,100682.44
2023-05-17T01:11:50.334Z,100676.34
2023-05-17T01:14:35.191Z,100683.38
2023-05-17T01:17:02.732Z,100695.00
2023-05-17T01:19:40.801Z,100701.56
2023-05-17T01:22:14.188Z,100702.34
2023-05-17T01:24:50.643Z,100682.06
2023-05-17T01:27:16.902Z,100677.31
2023-05-17T01:29:43.198Z,100660.69
2023-05-17T01:32:09.454Z,100653.13
2023-05-17T01:34:35.719Z,100641.03
2023-05-17T01:37:01.975Z,100647.31
2023-05-17T01:39:28.241Z,100711.50
2023-05-17T01:41:59.945Z,100751.06
2023-05-17T01:44:27.553Z,100779.44
2023-05-17T01:46:55.209Z,100809.03
2023-05-17T01:49:23.618Z,100823.97
2023-05-17T01:52:12.001Z,100845.00
2023-05-17T01:54:39.545Z,100861.16
2023-05-17T01:57:06.026Z,100855.97
2023-05-17T01:59:32.356Z,100857.38
2023-05-17T02:01:58.918Z,100855.78
2023-05-17T02:04:25.238Z,100852.69
2023-05-17T02:06:51.524Z,100829.91
2023-05-17T02:09:17.788Z,100793.50
2023-05-17T02:11:44.069Z,100768.44
2023-05-17T02:14:10.321Z,100728.38
2023-05-17T02:16:36.579Z,100708.56
2023-05-17T02:19:02.853Z,100692.72
2023-05-17T02:21:29.117Z,100678.28
2023-05-17T02:23:55.367Z,100655.22
2023-05-17T02:26:21.618Z,100667.19
2023-05-17T02:28:47.881Z,100664.09
2023-05-17T02:31:14.219Z,100691.16
2023-05-17T02:33:40.628Z,100687.16
2023-05-17T02:36:06.990Z,100688.34
2023-05-17T02:38:33.565Z,100675.56
2023-05-17T02:40:59.804Z,100677.56
2023-05-17T02:43:26.053Z,100679.75
2023-05-17T02:45:52.291Z,100686.38
2023-05-17T02:48:18.600Z,100683.94
2023-05-17T02:50:44.883Z,100663.25
2023-05-17T02:53:11.142Z,100645.59
2023-05-17T02:55:37.381Z,100644.69
2023-05-17T02:58:03.682Z,100622.22
2023-05-17T03:00:29.927Z,100635.69
2023-05-17T03:02:56.314Z,100664.75
2023-05-17T03:05:22.633Z,100661.66
2023-05-17T03:07:48.877Z,100615.69
2023-05-17T03:10:15.131Z,100616.19
2023-05-17T03:12:41.392Z,100618.66
2023-05-17T03:15:07.868Z,100624.56
2023-05-17T03:17:34.226Z,100594.19
2023-05-17T03:29:18.724Z,100687.75
2023-05-17T03:31:45.004Z,100711.31
2023-05-17T03:34:11.319Z,100704.34
2023-05-17T03:36:38.068Z,100664.75
2023-05-17T03:39:10.172Z,100655.31
2023-05-17T03:41:36.435Z,100637.91
2023-05-17T03:44:02.702Z,100651.13
2023-05-17T03:46:28.966Z,100672.53
2023-05-17T03:48:55.266Z,100633.06
2023-05-17T03:51:21.556Z,100639.28
2023-05-17T03:53:47.836Z,100649.53
2023-05-17T03:56:14.100Z,100662.78
2023-05-17T03:58:40.367Z,100644.25
2023-05-17T04:01:06.610Z,100613.59
2023-05-17T04:03:32.933Z,100586.09
2023-05-17T04:06:05.280Z,100529.72
2023-05-17T04:08:31.589Z,100550.09
2023-05-17T04:10:57.829Z,100590.03
2023-05-17T04:13:24.080Z,100562.41
2023-05-17T04:15:50.336Z,100560.03
2023-05-17T04:18:16.703Z,100536.88
2023-05-17T04:20:43.017Z,100529.00
2023-05-17T04:23:09.267Z,100537.91
2023-05-17T04:25:35.511Z,100595.06
2023-05-17T04:28:01.769Z,100590.22
2023-05-17T04:30:28.010Z,100597.44
2023-05-17T04:32:54.358Z,100603.59
2023-05-17T04:35:20.623Z,100546.59
2023-05-17T04:37:46.889Z,100564.28
2023-05-17T04:40:13.271Z,100570.66
2023-05-17T04:42:39.537Z,100617.34
2023-05-17T04:45:06.064Z,100603.06
2023-05-17T04:47:32.396Z,100594.66
2023-05-17T04:49:58.694Z,100597.19
2023-05-17T04:52:24.955Z,100623.53
2023-05-17T04:54:51.283Z,100611.19
2023-05-17T04:57:17.565Z,100670.31
2023-05-17T04:59:44.606Z,100598.22
2023-05-17T05:02:10.888Z,100604.78
2023-05-17T05:04:37.209Z,100547.91
2023-05-17T05:07:03.512Z,100581.53
2023-05-17T05:09:29.796Z,100554.47
2023-05-17T05:11:56.034Z,100536.53
2023-05-17T05:14:22.444Z,100542.63
2023-05-17T05:16:48.682Z,100610.81
2023-05-17T05:19:15.141Z,100547.28
2023-05-17T05:21:41.662Z,100471.94
2023-05-17T05:24:08.036Z,100471.94
2023-05-17T05:26:34.295Z,100496.59
2023-05-17T05:29:00.580Z,100519.91
2023-05-17T05:31:26.829Z,100506.16
2023-05-17T05:33:53.224Z,100383.50
2023-05-17T05:36:19.519Z,100351.41
2023-05-17T05:38:45.790Z,100380.16
2023-05-17T05:41:12.045Z,100356.97
2023-05-17T05:43:38.302Z,100217.69
2023-05-17T05:46:04.568Z,100267.28
2023-05-17T05:48:30.958Z,100240.75
2023-05-17T05:50:57.267Z,100265.78
2023-05-17T05:53:23.524Z,100304.44
2023-05-17T05:55:49.910Z,100319.16
2023-05-17T05:58:16.192Z,100344.78
2023-05-17T06:00:42.456Z,100286.06
2023-05-17T06:03:08.826Z,100219.69
2023-05-17T06:05:35.223Z,100264.88
2023-05-17T06:08:01.550Z,100298.28
2023-05-17T06:10:27.962Z,100219.53
2023-05-17T06:12:54.393Z,100304.97
2023-05-17T06:15:20.808Z,100059.88
2023-05-17T06:17:47.158Z,100118.50
2023-05-17T06:20:13.482Z,100295.38
2023-05-17T06:22:39.734Z,100261.63
2023-05-17T06:25:06.091Z,100094.00
2023-05-17T06:27:32.363Z,99900.09
2023-05-17T06:29:58.631Z,99885.66
2023-05-17T06:32:25.050Z,100007.25
2023-05-17T06:34:51.339Z,100112.31
2023-05-17T06:37:18.622Z,100136.09
2023-05-17T06:39:51.550Z,100174.41
2023-05-17T06:42:26.481Z,100248.88
2023-05-17T06:44:52.733Z,100311.03
2023-05-17T06:47:19.011Z,100164.53
2023-05-17T06:49:45.313Z,100215.38
2023-05-17T06:52:11.623Z,100083.34
2023-05-17T06:54:37.889Z,100157.06
2023-05-17T06:57:04.289Z,100239.75
2023-05-17T06:59:30.546Z,100165.75
2023-05-17T07:01:56.810Z,100111.97
2023-05-17T07:04:23.171Z,100158.00
2023-05-17T07:06:49.508Z,100117.88
2023-05-17T07:09:15.765Z,100172.03
2023-05-17T07:11:42.120Z,100176.78
2023-05-17T07:14:08.405Z,100279.53
2023-05-17T07:16:34.653Z,100293.63
2023-05-17T07:19:00.971Z,100245.34
2023-05-17T07:21:27.265Z,100368.06
2023-05-17T07:23:53.532Z,100295.22
2023-05-17T07:26:19.781Z,100289.22
2023-05-17T07:28:46.141Z,100124.84
2023-05-17T07:31:12.397Z,100220.25
2023-05-17T07:33:38.673Z,100234.22
2023-05-17T07:36:05.442Z,100127.94
2023-05-17T07:38:31.737Z,100089.19
2023-05-17T07:40:57.990Z,100108.38
2023-05-17T07:43:24.249Z,100243.00
2023-05-17T07:45:50.500Z,100338.75
2023-05-17T07:48:16.898Z,100291.84
2023-05-17T07:50:43.720Z,100283.41
2023-05-17T07:53:10.032Z,100243.03
2023-05-17T07:55:36.355Z,100146.94
2023-05-17T07:58:02.662Z,99852.56
2023-05-17T08:00:28.918Z,99972.22
2023-05-17T08:02:56.096Z,100031.44
2023-05-17T08:05:22.387Z,100131.41
2023-05-17T08:07:48.668Z,100059.25
2023-05-17T08:10:14.931Z,100202.66
2023-05-17T08:12:41.200Z,100115.22
2023-05-17T08:15:07.522Z,100159.22
2023-05-17T08:17:33.876Z,99985.59
2023-05-17T08:20:00.257Z,100003.25
2023-05-17T08:22:26.513Z,100000.69
2023-05-17T08:24:52.798Z,99997.91
2023-05-17T08:27:19.047Z,99951.31
2023-05-17T08:29:48.108Z,100012.53
2023-05-17T08:32:14.341Z,99777.94
2023-05-17T08:34:40.628Z,99866.31
2023-05-17T08:37:06.919Z,99826.34
2023-05-17T08:39:33.203Z,99831.72
2023-05-17T08:41:59.818Z,99993.28
2023-05-17T08:44:26.805Z,99935.69
2023-05-17T08:46:53.068Z,100001.00
2023-05-17T08:49:22.495Z,99744.81
2023-05-17T08:51:53.118Z,99670.09
2023-05-17T08:54:19.377Z,99744.81
2023-05-17T08:56:45.645Z,99712.75
2023-05-17T08:59:11.921Z,99877.66
2023-05-17T09:01:39.100Z,99832.50
2023-05-17T09:04:05.505Z,99874.03
2023-05-17T09:06:31.803Z,99723.38
2023-05-17T09:08:58.065Z,99840.09
2023-05-17T09:11:24.845Z,99699.66
2023-05-17T09:13:51.140Z,99661.81
2023-05-17T09:16:17.447Z,99891.25
2023-05-17T09:18:43.885Z,100026.03
2023-05-17T09:21:10.203Z,99898.28
2023-05-17T09:23:37.686Z,99549.59
2023-05-17T09:26:07.225Z,99401.56
2023-05-17T09:28:37.698Z,99375.31
2023-05-17T09:31:07.224Z,99450.13
2023-05-17T09:33:33.674Z,99373.63
2023-05-17T09:36:00.825Z,99364.66
2023-05-17T09:38:27.080Z,99436.22
2023-05-17T09:40:53.370Z,99479.81
2023-05-17T09:43:23.084Z,99765.00
2023-05-17T09:45:54.943Z,99845.53
2023-05-17T09:48:21.295Z,99892.81
2023-05-17T09:50:48.133Z,99748.41
2023-05-17T09:53:24.240Z,99669.28
2023-05-17T09:55:56.522Z,99459.75
2023-05-17T09:58:26.850Z,99557.88
2023-05-17T10:00:53.717Z,99631.84
2023-05-17T10:03:20.411Z,99686.97
2023-05-17T10:05:46.758Z,99562.81
2023-05-17T10:08:13.278Z,99404.91
2023-05-17T10:10:39.979Z,99617.19
2023-05-17T10:13:08.555Z,99595.09
2023-05-17T10:15:35.035Z,99855.97
2023-05-17T10:18:03.182Z,100117.31
2023-05-17T10:20:29.698Z,100118.59
2023-05-17T10:22:58.419Z,100062.69
2023-05-17T10:25:24.909Z,99989.06
2023-05-17T10:27:51.184Z,99695.00
2023-05-17T10:30:17.649Z,99358.66
2023-05-17T10:32:47.045Z,99624.00
2023-05-17T10:35:13.349Z,99649.97
2023-05-17T10:37:39.838Z,99670.22
2023-05-17T10:40:06.371Z,99396.50
2023-05-17T10:42:32.623Z,99575.88
2023-05-17T10:45:00.377Z,99529.72
2023-05-17T10:47:33.025Z,99814.78
2023-05-17T10:49:59.338Z,99718.97
2023-05-17T10:52:25.730Z,99432.03
2023-05-17T10:54:51.998Z,99434.06
2023-05-17T10:57:21.832Z,99506.63
2023-05-17T11:00:00.955Z,99320.75
2023-05-17T11:02:27.616Z,99272.06
2023-05-17T11:04:57.476Z,99308.06
2023-05-17T11:07:29.898Z,99388.78
2023-05-17T11:10:02.206Z,99511.47
2023-05-17T11:12:35.444Z,99694.41
2023-05-17T11:15:08.412Z,99557.56
2023-05-17T11:17:35.781Z,99561.94
2023-05-17T11:20:02.745Z,99169.28
2023-05-17T11:22:34.581Z,99393.09
2023-05-17T11:25:01.139Z,99702.72
2023-05-17T11:27:27.428Z,99488.25
2023-05-17T11:29:54.036Z,99607.09
2023-05-17T11:32:33.663Z,99493.41
2023-05-17T11:35:00.182Z,99345.88
2023-05-17T11:37:30.014Z,99302.50
2023-05-17T11:43:16.959Z,99307.38
2023-05-17T11:46:02.592Z,99551.34
2023-05-17T11:48:30.285Z,99510.00
2023-05-17T11:50:56.651Z,99441.25
2023-05-17T11:53:25.013Z,99688.28
2023-05-17T11:55:51.596Z,99474.38
2023-05-17T11:58:18.998Z,99326.28
2023-05-17T12:00:45.296Z,99389.19
2023-05-17T12:03:18.272Z,99494.41
2023-05-17T12:05:44.529Z,99395.28
2023-05-17T12:08:10.785Z,99667.25
2023-05-17T12:10:37.047Z,99793.13
2023-05-17T12:13:03.836Z,99678.09
2023-05-17T12:15:30.086Z,99793.56
2023-05-17T12:17:56.478Z,99694.84
2023-05-17T12:20:22.992Z,99759.94
2023-05-17T12:22:55.441Z,99817.06
2023-05-17T12:25:21.885Z,99726.63
2023-05-17T12:27:48.144Z,99777.69
2023-05-17T12:30:14.867Z,99848.06
2023-05-17T12:32:41.209Z,99681.38
2023-05-17T12:35:07.905Z,99605.19
2023-05-17T12:37:49.357Z,99710.31
2023-05-17T12:40:15.655Z,99727.41
2023-05-17T12:42:42.633Z,99875.72
2023-05-17T12:45:09.358Z,99656.47
2023-05-17T12:47:35.676Z,99815.59
2023-05-17T12:50:01.922Z,99740.59
2023-05-17T12:52:33.046Z,99795.00
2023-05-17T12:54:59.316Z,99943.25
2023-05-17T12:57:25.574Z,99854.09
2023-05-17T12:59:52.138Z,99889.56
2023-05-17T13:02:21.500Z,100001.63
2023-05-17T13:04:47.883Z,100187.94
2023-05-17T13:07:20.449Z,100088.94
2023-05-17T13:09:46.872Z,99977.81
2023-05-17T13:12:17.753Z,100098.75
2023-05-17T13:14:46.520Z,100088.13
2023-05-17T13:17:22.699Z,100056.53
2023-05-17T13:19:49.068Z,100034.09
2023-05-17T13:22:15.410Z,100203.50
2023-05-17T13:24:41.729Z,100077.19
2023-05-17T13:27:07.994Z,100033.66
2023-05-17T13:29:39.349Z,100163.91
2023-05-17T13:32:06.759Z,100113.88
2023-05-17T13:34:33.023Z,100048.50
2023-05-17T13:36:59.281Z,100078.47
2023-05-17T13:39:25.601Z,100114.63
2023-05-17T13:41:52.050Z,100333.78
2023-05-17T13:44:18.319Z,100241.88
2023-05-17T13:46:44.563Z,100256.22
2023-05-17T13:49:10.909Z,100349.50
2023-05-17T13:51:37.265Z,100240.28
2023-05-17T13:54:05.185Z,100323.56
2023-05-17T13:56:31.810Z,100424.78
2023-05-17T13:58:58.072Z,100637.25
2023-05-17T14:01:24.466Z,100648.38
2023-05-17T14:03:50.765Z,100609.38
2023-05-17T14:06:17.162Z,100582.47
2023-05-17T14:08:43.466Z,100607.13
2023-05-17T14:11:09.769Z,100459.78
2023-05-17T14:13:36.044Z,100447.19
2023-05-17T14:16:02.275Z,100488.34
2023-05-17T14:18:28.590Z,100564.94
2023-05-17T14:20:54.976Z,100655.13
2023-05-17T14:23:21.239Z,100538.69
2023-05-17T14:25:47.501Z,100431.19
2023-05-17T14:28:13.758Z,100176.16
2023-05-17T14:30:40.025Z,100334.28
2023-05-17T14:33:06.349Z,100369.88
2023-05-17T14:35:32.670Z,100335.28
2023-05-17T14:37:58.987Z,100287.03
2023-05-17T14:40:25.262Z,100246.88
2023-05-17T14:42:53.228Z,100539.25
2023-05-17T14:45:19.499Z,100313.72
2023-05-17T14:47:45.775Z,100243.56
2023-05-17T14:50:12.070Z,100095.94
2023-05-17T14:52:38.331Z,100157.75
2023-05-17T14:55:04.763Z,100142.56
2023-05-17T14:57:31.014Z,100383.28
2023-05-17T14:59:57.307Z,100309.97
2023-05-17T15:02:23.563Z,100219.06
2023-05-17T15:04:49.913Z,100260.72
2023-05-17T15:07:16.257Z,100160.41
2023-05-17T15:09:42.541Z,100172.97
2023-05-17T15:12:09.623Z,100137.84
2023-05-17T15:14:36.680Z,99952.25
2023-05-17T15:17:03.007Z,100040.03
2023-05-17T15:19:29.324Z,100123.00
2023-05-17T15:21:55.600Z,100111.22
2023-05-17T15:24:21.874Z,100045.50
2023-05-17T15:26:48.115Z,100198.47
2023-05-17T15:29:14.376Z,100122.25
2023-05-17T15:31:40.624Z,100068.94
2023-05-17T15:34:06.936Z,100248.81
2023-05-17T15:36:33.214Z,100288.75
2023-05-17T15:38:59.480Z,100248.09
2023-05-17T15:41:26.588Z,100356.78
2023-05-17T15:43:54.111Z,100457.63
2023-05-17T15:46:20.652Z,100486.00
2023-05-17T15:48:47.070Z,100310.97
2023-05-17T15:51:13.399Z,100175.88
2023-05-17T15:53:39.664Z,100274.59
2023-05-17T15:56:06.050Z,100340.78
2023-05-17T15:58:32.308Z,100275.78
2023-05-17T16:00:59.082Z,100086.59
2023-05-17T16:03:25.334Z,100085.44
2023-05-17T16:05:51.708Z,100206.28
2023-05-17T16:08:18.034Z,100282.44
2023-05-17T16:10:44.286Z,100358.94
2023-05-17T16:13:10.533Z,100402.63
2023-05-17T16:15:36.794Z,100296.84
2023-05-17T16:18:03.092Z,100276.16
2023-05-17T16:20:29.427Z,100165.97
2023-05-17T16:22:55.682Z,100370.97
2023-05-17T16:25:22.479Z,100389.31
2023-05-17T16:27:48.747Z,100322.75
2023-05-17T16:30:15.168Z,100316.75
2023-05-17T16:32:41.615Z,100315.94
2023-05-17T16:35:08.260Z,100347.13
2023-05-17T16:37:34.503Z,100528.09
2023-05-17T16:40:00.780Z,100329.03
2023-05-17T16:42:27.037Z,100305.72
2023-05-17T16:44:53.283Z,100252.84
2023-05-17T16:47:19.878Z,100226.13
2023-05-17T16:49:46.136Z,100212.81
2023-05-17T16:52:12.390Z,100282.44
2023-05-17T16:54:38.649Z,100165.94
2023-05-17T16:57:07.924Z,100214.38
2023-05-17T16:59:34.591Z,100396.00
2023-05-17T17:02:00.890Z,100379.03
2023-05-17T17:04:27.265Z,100314.91
2023-05-17T17:06:53.535Z,100270.38
2023-05-17T17:09:19.794Z,100259.63
2023-05-17T17:11:46.086Z,100329.69
2023-05-17T17:14:12.337Z,100414.53
2023-05-17T17:16:38.688Z,100464.88
2023-05-17T17:19:05.092Z,100513.34
2023-05-17T17:21:31.399Z,100454.75
2023-05-17T17:23:57.662Z,100445.66
2023-05-17T17:26:23.944Z,100507.38
2023-05-17T17:28:50.210Z,100576.03
2023-05-17T17:31:16.560Z,100600.63
2023-05-17T17:33:42.817Z,100626.78
2023-05-17T17:36:09.228Z,100719.63
2023-05-17T17:38:35.613Z,100874.09
2023-05-17T17:41:01.857Z,100798.59
2023-05-17T17:43:28.097Z,100778.97
2023-05-17T17:45:54.342Z,100787.78
2023-05-17T17:48:20.579Z,100719.69
2023-05-17T17:50:46.850Z,100675.91
2023-05-17T17:53:13.094Z,100732.06
2023-05-17T17:55:39.363Z,100736.31
2023-05-17T17:58:05.617Z,100716.84
2023-05-17T18:00:31.989Z,100668.25
2023-05-17T18:02:58.473Z,100659.94
2023-05-17T18:05:24.818Z,100751.47
2023-05-17T18:07:51.090Z,100805.06
2023-05-17T18:10:17.405Z,100765.94
2023-05-17T18:12:43.646Z,100885.50
2023-05-17T18:15:10.171Z,100890.84
2023-05-17T18:17:36.497Z,100866.25
2023-05-17T18:20:02.829Z,100928.28
2023-05-17T18:22:29.094Z,100997.25
2023-05-17T18:24:55.340Z,101040.38
2023-05-17T18:27:21.590Z,101075.81
2023-05-17T18:29:47.882Z,101136.06
2023-05-17T18:32:14.195Z,101201.88
2023-05-17T18:34:40.500Z,101241.50
2023-05-17T18:37:06.763Z,101330.19
2023-05-17T18:39:33.011Z,101374.88
2023-05-17T18:41:59.278Z,101366.72
2023-05-17T18:44:25.526Z,101384.28
2023-05-17T18:46:51.824Z,101427.09
2023-05-17T18:49:18.124Z,101441.91
2023-05-17T18:51:44.450Z,101485.16
2023-05-17T18:54:10.709Z,101487.53
2023-05-17T18:56:36.978Z,101448.63
2023-05-17T18:59:03.238Z,101471.28
2023-05-17T19:01:29.589Z,101533.94
2023-05-17T19:03:55.947Z,101574.34
2023-05-17T19:06:22.578Z,101567.13
2023-05-17T19:08:49.181Z,101605.84
2023-05-17T19:11:15.541Z,101614.41
2023-05-17T19:13:41.787Z,101574.31
2023-05-17T19:16:08.073Z,101586.75
2023-05-17T19:18:34.489Z,101600.72
2023-05-17T19:21:00.815Z,101564.66
2023-05-17T19:23:27.048Z,101562.34
2023-05-17T19:25:53.440Z,101561.28
2023-05-17T19:28:19.682Z,101520.94
2023-05-17T19:30:45.944Z,101518.56
2023-05-17T19:33:12.301Z,101529.63
2023-05-17T19:35:38.652Z,101555.47
2023-05-17T19:38:04.898Z,101525.56
2023-05-17T19:40:31.411Z,101529.28
2023-05-17T19:42:57.840Z,101540.91
2023-05-17T19:45:24.160Z,101538.03
2023-05-17T19:47:50.489Z,101499.38
2023-05-17T19:50:16.785Z,101501.91
2023-05-17T19:52:43.054Z,101490.53
2023-05-17T19:55:09.337Z,101508.41
2023-05-17T19:57:35.607Z,101502.78
2023-05-17T20:00:01.969Z,101477.50
2023-05-17T20:02:28.296Z,101506.00
2023-05-17T20:04:54.587Z,101462.00
2023-05-17T20:07:20.829Z,101553.19
2023-05-17T20:09:47.064Z,101549.03
2023-05-17T20:12:13.522Z,101539.41
2023-05-17T20:14:39.899Z,101526.56
2023-05-17T20:17:06.166Z,101537.84
2023-05-17T20:19:32.514Z,101541.53
2023-05-17T20:21:58.894Z,101572.81
2023-05-17T20:24:25.142Z,101580.16
2023-05-17T20:26:51.414Z,101558.91
2023-05-17T20:29:17.668Z,101547.69
2023-05-17T20:31:43.976Z,101534.84
2023-05-17T20:34:10.251Z,101519.03
2023-05-17T20:36:36.503Z,101525.84
2023-05-17T20:39:02.757Z,101516.22
2023-05-17T20:41:29.006Z,101512.09
2023-05-17T20:43:55.248Z,101573.00
2023-05-17T20:46:21.544Z,101591.44
2023-05-17T20:48:47.929Z,101608.09
2023-05-17T20:51:14.220Z,101621.88
2023-05-17T20:53:40.491Z,101588.66
2023-05-17T20:56:06.813Z,101608.06
2023-05-17T20:58:33.068Z,101568.63
2023-05-17T21:00:59.575Z,101546.97
2023-05-17T21:03:26.908Z,101561.78
2023-05-17T21:05:53.886Z,101589.84
2023-05-17T21:08:20.136Z,101570.66
2023-05-17T21:10:46.599Z,101623.88
2023-05-17T21:13:12.915Z,101626.50
2023-05-17T21:15:39.183Z,101588.88
2023-05-17T21:18:05.457Z,101541.25
2023-05-17T21:20:31.755Z,101727.25
2023-05-17T21:22:58.017Z,101749.66
2023-05-17T21:25:24.269Z,101707.72
2023-05-17T21:27:50.533Z,101654.53
2023-05-17T21:30:16.814Z,101623.09
2023-05-17T21:32:43.090Z,101618.47
2023-05-17T21:35:09.397Z,101648.16
2023-05-17T21:37:36.511Z,101928.97
2023-05-17T21:40:02.806Z,101884.88
2023-05-17T21:42:29.091Z,101804.47
2023-05-17T21:44:55.360Z,101709.88
2023-05-17T21:47:21.628Z,101620.44
2023-05-17T21:49:47.870Z,101618.25
2023-05-17T21:52:14.154Z,101611.59
2023-05-17T21:54:40.424Z,101644.19
2023-05-17T21:57:06.784Z,101614.41
2023-05-17T21:59:33.133Z,101571.84
2023-05-17T22:02:02.374Z,101546.22
2023-05-17T22:04:28.634Z,101497.00
2023-05-17T22:06:55.435Z,101559.78
2023-05-17T22:09:21.702Z,101562.97
2023-05-17T22:11:47.995Z,101560.19
2023-05-17T22:14:14.262Z,101534.00
2023-05-17T22:16:40.518Z,101511.22
2023-05-17T22:19:06.806Z,101504.00
2023-05-17T22:21:33.115Z,101548.06
2023-05-17T22:23:59.380Z,101577.28
2023-05-17T22:26:25.642Z,101608.19
2023-05-17T22:28:51.900Z,101669.31
2023-05-17T22:31:18.556Z,101635.00
2023-05-17T22:33:45.045Z,101610.63
2023-05-17T22:36:11.324Z,101595.47
2023-05-17T22:38:37.583Z,101672.00
2023-05-17T22:41:03.842Z,101764.38
2023-05-17T22:43:30.255Z,101717.25
2023-05-17T22:45:56.544Z,101656.66
2023-05-17T22:48:22.798Z,101612.25
2023-05-17T22:50:49.043Z,101583.53
2023-05-17T22:53:15.561Z,101542.97
2023-05-17T22:55:42.072Z,101593.97
2023-05-17T22:58:08.337Z,101601.84
2023-05-17T23:00:34.604Z,101542.72
2023-05-17T23:03:00.930Z,101791.78
2023-05-17T23:05:27.204Z,101796.03
2023-05-17T23:07:53.468Z,101796.53
2023-05-17T23:10:19.730Z,101773.16
2023-05-17T23:12:45.991Z,101855.94
2023-05-17T23:15:12.241Z,102000.75
2023-05-17T23:17:38.577Z,101933.94
2023-05-17T23:20:05.081Z,101847.66
2023-05-17T23:22:31.358Z,101749.94
2023-05-17T23:24:57.972Z,101794.50
2023-05-17T23:27:24.220Z,101857.44
2023-05-17T23:29:50.468Z,101799.13
2023-05-17T23:32:16.750Z,101704.22
2023-05-17T23:34:43.023Z,101644.84
2023-05-17T23:37:09.300Z,101605.16
2023-05-17T23:39:35.538Z,101598.78
2023-05-17T23:42:01.798Z,101584.94
2023-05-17T23:44:28.056Z,101515.16
2023-05-17T23:46:54.316Z,101541.25
2023-05-17T23:49:20.554Z,101640.09
2023-05-17T23:51:46.808Z,101695.28
2023-05-17T23:54:13.074Z,101651.09
2023-05-17T23:56:39.338Z,101602.19
2023-05-17T23:59:05.594Z,101534.66
